Flight Track Log - Related Links

Times and Time Zones

All times are in EDT time to prevent confusion due to time zone crossing. See the TRS1795 flight status page for this flight to view local times or setup timezone preferences in your user account.

Time Position Orientation Groundspeed Altitude Reporting Facility
EDT Latitude Longitude Course Direction KTS MPH feet Rate Location/Type
Fri 09:33:09 AM 42.9500 -87.9000 269° West 139 160 1,500  Level KMKE
Fri 09:35:32 AM 42.9475 -88.0481 215° Southwest 263 303 7,900 2,897 Climbing Chicago Center
Fri 09:36:32 AM 42.8878 -88.1058 168° South 285 328 11,300 3,050 Climbing Chicago Center
Fri 09:37:32 AM 42.7894 -88.0767 158° South 375 432 14,000 2,850 Climbing Chicago Center
Fri 09:38:32 AM 42.6931 -88.0250 150° Southeast 370 426 17,000 2,600 Climbing Chicago Center
Fri 09:39:32 AM 42.6003 -87.9508 149° Southeast 376 433 19,200 2,250 Climbing Chicago Center
Fri 09:40:32 AM 42.4950 -87.8658 140° Southeast 414 476 21,500 2,150 Climbing Chicago Center
Fri 09:41:32 AM 42.4019 -87.7583 103° East 445 512 23,500 1,950 Climbing Chicago Center
Fri 09:42:32 AM 42.3725 -87.5878 107° East 472 543 25,400 2,000 Climbing Chicago Center
Fri 09:43:32 AM 42.3342 -87.4147 107° East 472 543 27,500 1,800 Climbing Chicago Center
Fri 09:44:32 AM 42.2936 -87.2361 106° East 472 543 29,000 700 Climbing Chicago Center
Fri 09:45:32 AM 42.2567 -87.0606 107° East 472 543 28,900 -900 Descending Chicago Center
Fri 09:46:32 AM 42.2178 -86.8911 107° East 472 543 27,200 -1,650 Descending Chicago Center
Fri 09:47:32 AM 42.1808 -86.7242 108° East 472 543 25,600 -1,100 Descending Chicago Center
Fri 09:48:32 AM 42.1439 -86.5689 106° East 458 527 25,000 -300 Descending Chicago Center
Fri 09:49:32 AM 42.1106 -86.4108 107° East 441 507 25,000  Level Chicago Center
Fri 09:50:32 AM 42.0731 -86.2475 107° East 441 507 25,000  Level Chicago Center
Fri 09:51:32 AM 42.0372 -86.0897 107° East 441 507 25,000  Level Chicago Center
Fri 09:52:32 AM 41.9992 -85.9242 106° East 441 507 25,000  Level Chicago Center
Fri 09:53:32 AM 41.9628 -85.7558 107° East 452 520 25,000  Level Chicago Center
Fri 09:54:32 AM 41.9239 -85.5875 107° East 458 527 25,000  Level Chicago Center
Fri 09:55:32 AM 41.8900 -85.4417 109° East 465 535 25,000  Level Chicago Center
Fri 09:56:35 AM 41.8419 -85.2497 108° East 462 532 25,000  Level Cleveland Center
Fri 09:57:35 AM 41.8025 -85.0908 107° East 504 580 25,000  Level Cleveland Center
Fri 09:58:35 AM 41.7669 -84.9322 109° East 475 547 25,000  Level Cleveland Center
Fri 09:59:35 AM 41.7250 -84.7708 107° East 462 532 25,000  Level Cleveland Center
Fri 10:00:35 AM 41.6872 -84.6042 109° East 462 532 25,000  Level Cleveland Center
Fri 10:01:35 AM 41.6467 -84.4461 107° East 457 526 25,000  Level Cleveland Center
Fri 10:02:35 AM 41.6083 -84.2797 109° East 452 520 25,000  Level Cleveland Center
Fri 10:03:35 AM 41.5675 -84.1192 107° East 452 520 25,000  Level Cleveland Center
Fri 10:04:35 AM 41.5269 -83.9450 109° East 452 520 25,000  Level Cleveland Center
Fri 10:05:35 AM 41.4858 -83.7819 111° Southeast 452 520 25,000 -350 Level Cleveland Center
Fri 10:06:35 AM 41.4400 -83.6247 124° Southeast 452 520 24,300 -1,000 Descending Cleveland Center
Fri 10:07:35 AM 41.3667 -83.4800 127° Southeast 462 532 23,000 -650 Descending Cleveland Center
Fri 10:08:35 AM 41.2886 -83.3439 126° Southeast 468 539 23,000  Level Cleveland Center
Fri 10:09:35 AM 41.2128 -83.2056 127° Southeast 468 539 23,000 -1,050 Level Cleveland Center
Fri 10:10:35 AM 41.1344 -83.0672 126° Southeast 468 539 20,900 -2,600 Descending Cleveland Center
Fri 10:11:35 AM 41.0622 -82.9350 127° Southeast 461 531 17,800 -1,950 Descending Cleveland Center
Fri 10:12:35 AM 40.9878 -82.8031 127° Southeast 454 522 17,000 -400 Descending Cleveland Center
Fri 10:13:35 AM 40.9150 -82.6769 117° Southeast 441 507 17,000  Level Cleveland Center
Fri 10:14:35 AM 40.8614 -82.5350 99° East 436 502 17,000 -950 Level Cleveland Center
Fri 10:15:35 AM 40.8447 -82.3975 97° East 425 489 15,100 -2,300 Descending Cleveland Center
Fri 10:16:35 AM 40.8306 -82.2461 99° East 415 478 12,400 -2,250 Descending Cleveland Center
Fri 10:17:35 AM 40.8139 -82.1003 98° East 407 468 10,600 -1,150 Descending Cleveland Center
Fri 10:18:35 AM 40.8008 -81.9792 98° East 363 418 10,100 -850 Descending Cleveland Center
Fri 10:19:35 AM 40.7894 -81.8667 99° East 320 368 8,900 -1,300 Descending Cleveland Center
Fri 10:20:35 AM 40.7761 -81.7594 50° Northeast 296 341 7,500 -1,450 Descending Cleveland Center
Fri 10:21:35 AM 40.8269 -81.6781 30° Northeast 273 314 6,000 -1,200 Descending Cleveland Center
Fri 10:22:35 AM 40.8961 -81.6242 32° Northeast 273 314 5,100 -1,200 Descending Cleveland Center
Fri 10:23:35 AM 40.9572 -81.5728 43° Northeast 268 308 3,600 -1,000 Descending Cleveland Center
Fri 10:24:35 AM 41.0036 -81.5158 92° East 242 278 3,100 -550 Descending Cleveland Center
Fri 10:25:35 AM 41.0019 -81.4442 173° South 168 193 2,500 -600 Descending Cleveland Center
Fri 10:26:35 AM 40.9644 -81.4383 173° South 104 120 1,900 -600 Descending Cleveland Center

Login

Don't have an account? Register now (free) for customized features, flight alerts, and more!